Time;durP1;ratioP1;P1;durP2;ratioP2;P2;SDS_P1;SDS_P2;PMS_P1;PMS_P2;Temp;Humidity;BMP_temperature;BMP_pressure;BME280_temperature;BME280_humidity;BME280_pressure;Samples;Min_cycle;Max_cycle;Signal;HPM_P1;HPM_P2
2023/05/29 00:02:01;;;;;;;1999.90;999.90;;;24.80;85.80;;;;;;5075582;28;20111;-71
2023/05/29 00:04:28;;;;;;;1999.90;999.90;;;24.90;85.40;;;;;;5086909;28;20055;-70
2023/05/29 00:06:55;;;;;;;1999.90;999.90;;;24.80;84.20;;;;;;5105384;28;20089;-70
2023/05/29 00:09:23;;;;;;;1999.90;999.90;;;24.80;85.60;;;;;;5091796;28;20099;-70
2023/05/29 00:11:52;;;;;;;1999.90;999.90;;;25.10;84.20;;;;;;5093379;28;20438;-70
2023/05/29 00:14:22;;;;;;;1999.90;999.90;;;25.00;84.80;;;;;;5094593;28;20393;-70
2023/05/29 00:16:50;;;;;;;1999.90;999.90;;;25.00;85.30;;;;;;5091896;28;20043;-71
2023/05/29 00:19:19;;;;;;;1999.90;999.90;;;25.50;83.90;;;;;;5087995;28;20041;-71
2023/05/29 00:21:48;;;;;;;1999.90;999.90;;;26.00;83.90;;;;;;5095209;28;20455;-70
2023/05/29 00:24:18;;;;;;;1999.90;999.90;;;26.60;82.20;;;;;;5086035;28;20044;-71
2023/05/29 00:26:45;;;;;;;1999.90;999.90;;;26.70;82.20;;;;;;5092652;28;20031;-70
2023/05/29 00:29:13;;;;;;;1999.90;999.90;;;27.20;81.00;;;;;;5086815;28;20370;-71
2023/05/29 00:31:40;;;;;;;1999.90;999.90;;;27.20;81.10;;;;;;5093803;28;20031;-71
2023/05/29 00:34:07;;;;;;;1999.90;999.90;;;27.20;81.20;;;;;;5084707;28;20115;-69
2023/05/29 00:36:36;;;;;;;1999.90;999.90;;;27.20;80.40;;;;;;5096148;28;20495;-69
2023/05/29 00:39:03;;;;;;;1999.90;999.90;;;27.20;80.40;;;;;;5092638;28;20048;-73
2023/05/29 00:41:31;;;;;;;1999.90;999.90;;;27.60;79.90;;;;;;5090847;28;20033;-70
2023/05/29 00:43:59;;;;;;;1999.90;999.90;;;28.20;78.50;;;;;;5084248;28;20031;-71
2023/05/29 00:46:26;;;;;;;1999.90;999.90;;;28.50;77.90;;;;;;5074424;28;20074;-70
2023/05/29 00:48:55;;;;;;;1999.90;999.90;;;28.50;78.70;;;;;;5091005;28;20032;-70
2023/05/29 00:51:23;;;;;;;1999.90;999.90;;;29.10;76.90;;;;;;5097540;28;20038;-70
2023/05/29 00:53:53;;;;;;;1999.90;999.90;;;29.20;77.30;;;;;;5095768;28;20034;-71
2023/05/29 00:56:21;;;;;;;1999.90;999.90;;;29.50;76.60;;;;;;5099643;28;20063;-71
2023/05/29 00:58:52;;;;;;;1999.90;999.90;;;29.70;75.30;;;;;;5095029;28;20416;-71
2023/05/29 01:01:21;;;;;;;1999.90;999.90;;;29.60;75.50;;;;;;5092177;28;20084;-72
2023/05/29 01:03:49;;;;;;;1999.90;999.90;;;29.90;75.70;;;;;;5084446;28;20040;-71
2023/05/29 01:06:16;;;;;;;1999.90;999.90;;;30.10;74.70;;;;;;5092734;28;20478;-71
2023/05/29 01:08:44;;;;;;;1999.90;999.90;;;30.10;74.40;;;;;;5070995;28;20062;-72
2023/05/29 01:11:51;;;;;;;1999.90;999.90;;;30.00;73.20;;;;;;5098608;28;20039;-72
2023/05/29 01:14:45;;;;;;;1999.90;999.90;;;29.80;74.40;;;;;;5094011;28;20024;-71
2023/05/29 01:17:26;;;;;;;1999.90;999.90;;;29.70;74.60;;;;;;5088630;28;20028;-71
2023/05/29 01:20:24;;;;;;;1999.90;999.90;;;29.90;74.60;;;;;;5088478;28;20036;-71
2023/05/29 01:23:11;;;;;;;1999.90;999.90;;;30.20;73.60;;;;;;5090298;28;20429;-71
2023/05/29 01:25:49;;;;;;;1999.90;999.90;;;30.20;73.40;;;;;;5084445;28;20030;-71
2023/05/29 01:28:20;;;;;;;1999.90;999.90;;;30.60;73.50;;;;;;5096983;28;20028;-71
2023/05/29 01:30:50;;;;;;;1999.90;999.90;;;30.90;73.00;;;;;;5096490;28;20077;-71
2023/05/29 01:33:17;;;;;;;1999.90;999.90;;;31.10;71.90;;;;;;5098627;28;20469;-71
2023/05/29 01:35:45;;;;;;;1999.90;999.90;;;31.30;70.90;;;;;;5088590;28;20107;-71
2023/05/29 01:38:12;;;;;;;1999.90;999.90;;;31.00;71.60;;;;;;5091436;28;20087;-71
2023/05/29 01:40:41;;;;;;;1999.90;999.90;;;30.90;71.50;;;;;;5094102;28;20086;-71
2023/05/29 01:43:08;;;;;;;1999.90;999.90;;;31.10;71.30;;;;;;5108446;28;20019;-70
2023/05/29 01:45:36;;;;;;;1999.90;999.90;;;30.90;72.00;;;;;;5087150;28;20024;-70
2023/05/29 01:48:04;;;;;;;1999.90;999.90;;;30.90;72.60;;;;;;5089127;28;20123;-70
2023/05/29 01:50:33;;;;;;;1999.90;999.90;;;31.10;71.80;;;;;;5086508;28;20055;-71
2023/05/29 01:53:00;;;;;;;1999.90;999.90;;;31.20;72.40;;;;;;5073026;28;20024;-71
2023/05/29 01:55:27;;;;;;;1999.90;999.90;;;31.50;72.90;;;;;;5086399;28;20035;-71
2023/05/29 01:57:56;;;;;;;1999.90;999.90;;;31.70;71.80;;;;;;5096383;28;20032;-69
2023/05/29 02:00:23;;;;;;;1999.90;999.90;;;31.60;70.60;;;;;;5091283;28;20087;-70
2023/05/29 02:02:51;;;;;;;1999.90;999.90;;;30.80;70.10;;;;;;5105642;28;20075;-70
2023/05/29 02:05:18;;;;;;;1999.90;999.90;;;30.70;71.10;;;;;;5083269;28;20063;-71
2023/05/29 02:07:46;;;;;;;1999.90;999.90;;;30.70;70.30;;;;;;5094252;28;20032;-70
2023/05/29 02:10:13;;;;;;;1999.90;999.90;;;30.60;72.70;;;;;;5098679;28;20031;-71
2023/05/29 02:12:41;;;;;;;1999.90;999.90;;;30.60;72.60;;;;;;5092271;28;20104;-71
2023/05/29 02:15:09;;;;;;;1999.90;999.90;;;30.90;72.30;;;;;;5086593;28;20064;-69
2023/05/29 02:17:37;;;;;;;1999.90;999.90;;;31.00;70.50;;;;;;5103828;28;20032;-70
2023/05/29 02:20:04;;;;;;;1999.90;999.90;;;31.30;71.20;;;;;;5095018;28;20524;-71
2023/05/29 02:22:32;;;;;;;1999.90;999.90;;;31.30;69.70;;;;;;5100687;28;20477;-71
2023/05/29 02:24:59;;;;;;;1999.90;999.90;;;31.20;70.80;;;;;;5092518;28;20055;-71
2023/05/29 02:27:27;;;;;;;1999.90;999.90;;;31.20;71.20;;;;;;5071683;28;20074;-71
2023/05/29 02:29:54;;;;;;;1999.90;999.90;;;31.30;70.70;;;;;;5094822;28;20114;-71
2023/05/29 02:32:22;;;;;;;1999.90;999.90;;;31.30;71.50;;;;;;5100330;28;20109;-72
2023/05/29 02:34:50;;;;;;;1999.90;999.90;;;31.10;70.30;;;;;;5093661;28;20556;-71
2023/05/29 02:37:18;;;;;;;1999.90;999.90;;;31.00;71.80;;;;;;5081627;28;20469;-70
2023/05/29 02:39:45;;;;;;;1999.90;999.90;;;30.90;70.40;;;;;;5094191;28;20118;-71
2023/05/29 02:42:12;;;;;;;1999.90;999.90;;;30.60;69.90;;;;;;5100767;28;20047;-71
2023/05/29 02:44:39;;;;;;;1999.90;999.90;;;30.20;69.30;;;;;;5093783;28;20032;-71
2023/05/29 02:47:07;;;;;;;1999.90;999.90;;;29.20;69.20;;;;;;5097323;28;20020;-71
2023/05/29 02:49:35;;;;;;;1999.90;999.90;;;28.80;70.20;;;;;;5096561;28;20029;-72
2023/05/29 02:52:03;;;;;;;1999.90;999.90;;;28.50;71.10;;;;;;5090688;28;20385;-71
2023/05/29 02:54:30;;;;;;;1999.90;999.90;;;28.10;71.30;;;;;;5096737;28;20028;-71
2023/05/29 02:56:57;;;;;;;1999.90;999.90;;;27.80;71.50;;;;;;5096727;28;20030;-71
2023/05/29 02:59:25;;;;;;;1999.90;999.90;;;27.60;71.80;;;;;;5091534;28;20062;-72
2023/05/29 03:01:52;;;;;;;1999.90;999.90;;;27.50;70.80;;;;;;5098321;28;20030;-70
2023/05/29 03:04:20;;;;;;;1999.90;999.90;;;27.20;71.20;;;;;;5091193;28;20020;-69
2023/05/29 03:06:47;;;;;;;1999.90;999.90;;;27.00;70.20;;;;;;5095103;28;20038;-70
2023/05/29 03:09:16;;;;;;;1999.90;999.90;;;26.90;70.70;;;;;;5094009;28;20038;-71
2023/05/29 03:11:44;;;;;;;1999.90;999.90;;;26.50;70.10;;;;;;5071949;28;20027;-70
2023/05/29 03:14:12;;;;;;;1999.90;999.90;;;26.30;71.00;;;;;;5087258;28;20043;-71
2023/05/29 03:16:40;;;;;;;1999.90;999.90;;;25.90;70.90;;;;;;5095801;28;20020;-72
2023/05/29 03:19:08;;;;;;;1999.90;999.90;;;25.70;71.40;;;;;;5084131;28;20120;-70
2023/05/29 03:21:36;;;;;;;1999.90;999.90;;;25.50;72.80;;;;;;5099402;28;20081;-71
2023/05/29 03:24:04;;;;;;;1999.90;999.90;;;25.20;72.60;;;;;;5097855;28;20036;-69
2023/05/29 03:26:31;;;;;;;1999.90;999.90;;;24.90;73.30;;;;;;5096520;28;20016;-70
2023/05/29 03:28:58;;;;;;;1999.90;999.90;;;24.60;73.50;;;;;;5089010;28;20032;-70
2023/05/29 03:31:26;;;;;;;1999.90;999.90;;;24.30;73.00;;;;;;5098464;28;20031;-70
2023/05/29 03:33:53;;;;;;;1999.90;999.90;;;23.90;72.90;;;;;;5099573;28;20052;-71
2023/05/29 03:36:20;;;;;;;1999.90;999.90;;;23.50;73.70;;;;;;5098884;28;20028;-71
2023/05/29 03:38:48;;;;;;;1999.90;999.90;;;23.20;74.50;;;;;;5085298;28;20588;-71
2023/05/29 03:41:15;;;;;;;1999.90;999.90;;;23.00;75.10;;;;;;5092168;28;20035;-71
2023/05/29 03:43:42;;;;;;;1999.90;999.90;;;22.70;75.60;;;;;;5088421;28;20036;-72
2023/05/29 03:46:10;;;;;;;1999.90;999.90;;;22.60;76.10;;;;;;5100716;28;20107;-71
2023/05/29 03:48:37;;;;;;;1999.90;999.90;;;22.40;76.20;;;;;;5098990;28;20038;-70
2023/05/29 03:51:06;;;;;;;1999.90;999.90;;;22.20;76.20;;;;;;5088815;28;20020;-72
2023/05/29 03:53:33;;;;;;;1999.90;999.90;;;22.00;76.80;;;;;;5087505;28;20367;-71
2023/05/29 03:56:01;;;;;;;1999.90;999.90;;;21.90;77.50;;;;;;5088909;28;20032;-71
2023/05/29 03:58:28;;;;;;;1999.90;999.90;;;21.80;78.10;;;;;;5080869;28;20036;-71
2023/05/29 04:00:56;;;;;;;1999.90;999.90;;;21.70;78.30;;;;;;5086451;28;20031;-70
2023/05/29 04:03:23;;;;;;;1999.90;999.90;;;21.60;79.20;;;;;;5086553;28;20056;-71
2023/05/29 04:05:50;;;;;;;1999.90;999.90;;;21.50;78.40;;;;;;5094406;28;20759;-71
2023/05/29 04:08:18;;;;;;;1999.90;999.90;;;21.50;78.50;;;;;;5107206;28;20107;-70
2023/05/29 04:10:46;;;;;;;1999.90;999.90;;;21.40;78.60;;;;;;5088134;28;20030;-72
2023/05/29 04:13:13;;;;;;;1999.90;999.90;;;21.30;78.80;;;;;;5091829;28;20048;-71
2023/05/29 04:15:42;;;;;;;1999.90;999.90;;;21.00;78.80;;;;;;5086712;28;20042;-71
2023/05/29 04:18:09;;;;;;;1999.90;999.90;;;20.90;79.50;;;;;;5086448;28;20205;-72
2023/05/29 04:20:36;;;;;;;1999.90;999.90;;;20.80;79.70;;;;;;5083578;28;20020;-70
2023/05/29 04:23:04;;;;;;;1999.90;999.90;;;20.70;79.40;;;;;;5087460;28;20036;-71
2023/05/29 04:25:32;;;;;;;1999.90;999.90;;;20.60;79.30;;;;;;5090151;28;20609;-71
2023/05/29 04:28:02;;;;;;;1999.90;999.90;;;20.50;79.20;;;;;;5093947;28;20469;-70
2023/05/29 04:30:30;;;;;;;1999.90;999.90;;;20.50;79.20;;;;;;5083801;28;20030;-69
2023/05/29 04:32:57;;;;;;;1999.90;999.90;;;20.40;78.70;;;;;;5095682;28;20039;-70
2023/05/29 04:35:25;;;;;;;1999.90;999.90;;;20.30;78.40;;;;;;5090190;28;20490;-71
2023/05/29 04:37:52;;;;;;;1999.90;999.90;;;20.30;78.40;;;;;;5102407;28;20152;-71
2023/05/29 04:40:20;;;;;;;1999.90;999.90;;;20.10;78.10;;;;;;5087572;28;20043;-71
2023/05/29 04:42:47;;;;;;;1999.90;999.90;;;20.00;78.50;;;;;;5072237;28;20035;-70
2023/05/29 04:45:16;;;;;;;1999.90;999.90;;;20.00;79.30;;;;;;5071391;28;20036;-74
2023/05/29 04:47:43;;;;;;;1999.90;999.90;;;19.90;79.10;;;;;;5085406;28;20063;-70
2023/05/29 04:50:16;;;;;;;1999.90;999.90;;;19.90;78.30;;;;;;5086573;28;20032;-71
2023/05/29 04:52:44;;;;;;;1999.90;999.90;;;19.80;79.10;;;;;;5096103;28;20718;-70
2023/05/29 04:55:11;;;;;;;1999.90;999.90;;;19.80;79.20;;;;;;5090171;28;20419;-70
2023/05/29 04:57:39;;;;;;;1999.90;999.90;;;19.80;79.30;;;;;;5097310;28;20028;-70
2023/05/29 05:00:09;;;;;;;1999.90;999.90;;;19.70;79.50;;;;;;5092254;28;20031;-70
2023/05/29 05:02:36;;;;;;;1999.90;999.90;;;19.70;79.30;;;;;;5103083;28;20050;-71
2023/05/29 05:05:04;;;;;;;1999.90;999.90;;;19.70;79.20;;;;;;5095017;28;20655;-73
2023/05/29 05:07:31;;;;;;;1999.90;999.90;;;19.60;79.40;;;;;;5097061;28;20027;-72
2023/05/29 05:09:59;;;;;;;1999.90;999.90;;;19.60;79.30;;;;;;5092561;28;20206;-71
2023/05/29 05:12:26;;;;;;;1999.90;999.90;;;19.60;79.00;;;;;;5095728;28;20028;-70
2023/05/29 05:14:53;;;;;;;1999.90;999.90;;;19.50;78.90;;;;;;5093108;28;20379;-72
2023/05/29 05:17:21;;;;;;;1999.90;999.90;;;19.50;78.90;;;;;;5084997;28;20020;-70
2023/05/29 05:19:54;;;;;;;1999.90;999.90;;;19.40;79.00;;;;;;5088169;28;20493;-69
2023/05/29 05:22:21;;;;;;;1999.90;999.90;;;19.40;79.60;;;;;;5090419;28;20090;-69
2023/05/29 05:24:49;;;;;;;1999.90;999.90;;;19.30;79.40;;;;;;5090716;28;20035;-71
2023/05/29 05:27:16;;;;;;;1999.90;999.90;;;19.40;79.60;;;;;;5096101;28;20477;-71
2023/05/29 05:29:43;;;;;;;1999.90;999.90;;;19.40;79.30;;;;;;5088614;28;20059;-70
2023/05/29 05:32:11;;;;;;;1999.90;999.90;;;19.30;79.70;;;;;;5101008;28;20106;-73
2023/05/29 05:34:38;;;;;;;1999.90;999.90;;;19.30;79.70;;;;;;5083261;28;20035;-70
2023/05/29 05:37:05;;;;;;;1999.90;999.90;;;19.30;79.70;;;;;;5088623;28;20028;-70
2023/05/29 05:39:33;;;;;;;1999.90;999.90;;;19.30;80.00;;;;;;5090645;28;20482;-71
2023/05/29 05:42:01;;;;;;;1999.90;999.90;;;19.30;80.00;;;;;;5083236;28;20149;-72
2023/05/29 05:44:28;;;;;;;1999.90;999.90;;;19.30;80.20;;;;;;5090086;28;20122;-71
2023/05/29 05:46:55;;;;;;;1999.90;999.90;;;19.30;79.80;;;;;;5081830;28;20020;-72
2023/05/29 05:49:23;;;;;;;1999.90;999.90;;;19.30;79.40;;;;;;5086068;28;20067;-70
2023/05/29 05:51:50;;;;;;;1999.90;999.90;;;19.30;79.70;;;;;;5090500;28;20038;-73
2023/05/29 05:54:18;;;;;;;1999.90;999.90;;;19.30;80.10;;;;;;5089019;28;21253;-70
2023/05/29 05:56:45;;;;;;;1999.90;999.90;;;19.30;80.20;;;;;;5093337;28;20073;-73
2023/05/29 05:59:12;;;;;;;1999.90;999.90;;;19.20;80.10;;;;;;5084414;28;20450;-73
2023/05/29 06:01:41;;;;;;;1999.90;999.90;;;19.30;79.90;;;;;;5084578;28;20106;-72
2023/05/29 06:04:08;;;;;;;1999.90;999.90;;;19.30;80.40;;;;;;5088999;28;20064;-72
2023/05/29 06:06:36;;;;;;;1999.90;999.90;;;19.20;80.60;;;;;;5089106;28;20051;-71
2023/05/29 06:09:04;;;;;;;1999.90;999.90;;;19.30;80.00;;;;;;5092439;28;20023;-70
2023/05/29 06:11:31;;;;;;;1999.90;999.90;;;19.40;80.50;;;;;;5087851;28;20143;-69
2023/05/29 06:13:59;;;;;;;1999.90;999.90;;;19.40;79.40;;;;;;5094404;28;20028;-71
2023/05/29 06:16:27;;;;;;;1999.90;999.90;;;19.40;78.70;;;;;;5094407;28;20042;-71
2023/05/29 06:18:54;;;;;;;1999.90;999.90;;;19.40;79.00;;;;;;5096385;28;20489;-70
2023/05/29 06:21:22;;;;;;;1999.90;999.90;;;19.50;79.40;;;;;;5096720;28;20012;-70
2023/05/29 06:23:49;;;;;;;1999.90;999.90;;;19.50;79.20;;;;;;5094925;28;20019;-70
2023/05/29 06:26:16;;;;;;;1999.90;999.90;;;19.40;79.50;;;;;;5096002;28;20035;-72
2023/05/29 06:28:44;;;;;;;1999.90;999.90;;;19.30;79.70;;;;;;5091223;28;20035;-71
2023/05/29 06:31:11;;;;;;;1999.90;999.90;;;19.10;80.20;;;;;;5087981;28;20031;-71
2023/05/29 06:33:38;;;;;;;1999.90;999.90;;;19.00;80.40;;;;;;5089353;28;20028;-71
2023/05/29 06:36:06;;;;;;;1999.90;999.90;;;18.90;80.50;;;;;;5091949;28;20036;-71
2023/05/29 06:38:34;;;;;;;1999.90;999.90;;;18.70;81.00;;;;;;5098466;28;20048;-71
2023/05/29 06:41:01;;;;;;;1999.90;999.90;;;18.50;81.60;;;;;;5091429;28;20029;-71
2023/05/29 06:43:29;;;;;;;1999.90;999.90;;;18.30;82.40;;;;;;5071827;28;20539;-70
2023/05/29 06:45:57;;;;;;;1999.90;999.90;;;18.10;82.90;;;;;;5086437;28;20363;-71
2023/05/29 06:48:24;;;;;;;1999.90;999.90;;;17.90;83.60;;;;;;5091073;28;20032;-70
2023/05/29 06:50:52;;;;;;;1999.90;999.90;;;17.70;83.90;;;;;;5091950;28;20033;-69
2023/05/29 06:53:19;;;;;;;1999.90;999.90;;;17.50;84.20;;;;;;5092446;28;20422;-69
2023/05/29 06:55:47;;;;;;;1999.90;999.90;;;17.40;84.50;;;;;;5090178;28;20027;-70
2023/05/29 06:58:14;;;;;;;1999.90;999.90;;;17.30;84.70;;;;;;5100218;28;20665;-70
2023/05/29 07:00:41;;;;;;;1999.90;999.90;;;17.20;85.10;;;;;;5090908;28;20046;-71
2023/05/29 07:03:08;;;;;;;1999.90;999.90;;;17.10;85.20;;;;;;5096328;28;20047;-71
2023/05/29 07:05:36;;;;;;;1999.90;999.90;;;17.00;85.30;;;;;;5089416;28;20028;-70
2023/05/29 07:08:03;;;;;;;1999.90;999.90;;;16.90;85.70;;;;;;5080945;28;20039;-70
2023/05/29 07:10:30;;;;;;;1999.90;999.90;;;16.80;85.70;;;;;;5088548;28;20398;-70
2023/05/29 07:12:58;;;;;;;1999.90;999.90;;;16.70;85.90;;;;;;5091574;28;20028;-70
2023/05/29 07:15:26;;;;;;;1999.90;999.90;;;16.60;85.60;;;;;;5075269;28;20133;-71
2023/05/29 07:17:53;;;;;;;1999.90;999.90;;;16.60;85.70;;;;;;5088254;28;20036;-70
2023/05/29 07:20:20;;;;;;;1999.90;999.90;;;16.50;85.80;;;;;;5094857;28;20112;-71
2023/05/29 07:22:48;;;;;;;1999.90;999.90;;;16.40;86.10;;;;;;5094334;28;20028;-71
2023/05/29 07:25:16;;;;;;;1999.90;999.90;;;16.40;86.20;;;;;;5086056;28;20106;-70
2023/05/29 07:27:43;;;;;;;1999.90;999.90;;;16.40;85.80;;;;;;5092619;28;20033;-70
2023/05/29 07:30:11;;;;;;;1999.90;999.90;;;16.40;85.50;;;;;;5093694;28;20028;-70
2023/05/29 07:32:38;;;;;;;1999.90;999.90;;;16.40;85.50;;;;;;5099657;28;20080;-69
2023/05/29 07:35:06;;;;;;;1999.90;999.90;;;16.30;85.50;;;;;;5092509;28;20023;-69
2023/05/29 07:37:34;;;;;;;1999.90;999.90;;;16.30;85.60;;;;;;5082631;28;20038;-70
2023/05/29 07:40:06;;;;;;;1999.90;999.90;;;16.30;86.00;;;;;;5084289;28;20036;-70
2023/05/29 07:42:33;;;;;;;1999.90;999.90;;;16.10;86.00;;;;;;5095841;28;20028;-71
2023/05/29 07:45:01;;;;;;;1999.90;999.90;;;16.00;86.00;;;;;;5085762;28;20023;-72
2023/05/29 07:47:28;;;;;;;1999.90;999.90;;;16.00;86.20;;;;;;5091814;28;20106;-72
2023/05/29 07:49:56;;;;;;;1999.90;999.90;;;15.90;86.20;;;;;;5087842;28;20054;-70
2023/05/29 07:52:23;;;;;;;1999.90;999.90;;;15.80;86.20;;;;;;5095905;28;20024;-70
2023/05/29 07:54:50;;;;;;;1999.90;999.90;;;15.70;86.20;;;;;;5084241;28;20039;-70
2023/05/29 07:57:22;;;;;;;1999.90;999.90;;;15.60;86.50;;;;;;5086571;28;20023;-70
2023/05/29 07:59:50;;;;;;;1999.90;999.90;;;15.50;86.80;;;;;;5086162;28;20090;-73
2023/05/29 08:02:17;;;;;;;1999.90;999.90;;;15.40;87.30;;;;;;5088363;28;20055;-70
2023/05/29 08:04:45;;;;;;;1999.90;999.90;;;15.30;88.00;;;;;;5077140;28;20036;-71
2023/05/29 08:07:12;;;;;;;1999.90;999.90;;;15.20;88.30;;;;;;5087959;28;20027;-69
2023/05/29 08:09:40;;;;;;;1999.90;999.90;;;15.00;88.70;;;;;;5085750;28;20028;-70
2023/05/29 08:12:07;;;;;;;1999.90;999.90;;;14.90;89.10;;;;;;5077413;28;20123;-68
2023/05/29 08:14:35;;;;;;;1999.90;999.90;;;14.80;89.10;;;;;;5080977;28;20414;-71
2023/05/29 08:17:02;;;;;;;1999.90;999.90;;;14.70;89.20;;;;;;5089331;28;20111;-71
2023/05/29 08:19:30;;;;;;;1999.90;999.90;;;14.70;89.20;;;;;;5087051;28;20509;-69
2023/05/29 08:21:57;;;;;;;1999.90;999.90;;;14.60;89.40;;;;;;5083282;28;20024;-70
2023/05/29 08:24:25;;;;;;;1999.90;999.90;;;14.50;90.00;;;;;;5084730;28;20035;-70
2023/05/29 08:26:52;;;;;;;1999.90;999.90;;;14.40;90.20;;;;;;5097776;28;20020;-71
2023/05/29 08:29:19;;;;;;;1999.90;999.90;;;14.40;90.20;;;;;;5083095;28;20382;-70
2023/05/29 08:31:47;;;;;;;1999.90;999.90;;;14.30;90.10;;;;;;5092222;28;20024;-70
2023/05/29 08:34:15;;;;;;;1999.90;999.90;;;14.20;90.20;;;;;;5086930;28;20073;-71
2023/05/29 08:36:42;;;;;;;1999.90;999.90;;;14.10;90.60;;;;;;5096343;28;20117;-70
2023/05/29 08:39:09;;;;;;;1999.90;999.90;;;14.00;90.80;;;;;;5090057;28;20035;-71
2023/05/29 08:41:46;;;;;;;1999.90;999.90;;;13.80;91.10;;;;;;5096332;28;20374;-70
2023/05/29 08:44:16;;;;;;;1999.90;999.90;;;13.70;91.40;;;;;;5089390;28;20036;-70
2023/05/29 08:46:45;;;;;;;1999.90;999.90;;;13.60;91.70;;;;;;5097553;28;20020;-70
2023/05/29 08:49:17;;;;;;;1999.90;999.90;;;13.60;91.70;;;;;;5090726;28;20024;-70
2023/05/29 08:51:50;;;;;;;1999.90;999.90;;;13.50;91.70;;;;;;5092488;28;20031;-70
2023/05/29 08:54:18;;;;;;;1999.90;999.90;;;13.50;91.60;;;;;;5090766;28;20024;-70
2023/05/29 08:56:46;;;;;;;1999.90;999.90;;;13.40;91.60;;;;;;5098384;28;20032;-70
2023/05/29 08:59:14;;;;;;;1999.90;999.90;;;13.40;91.60;;;;;;5091758;28;20058;-70
2023/05/29 09:01:42;;;;;;;1999.90;999.90;;;13.40;91.60;;;;;;5092151;28;20028;-71
2023/05/29 09:04:10;;;;;;;1999.90;999.90;;;13.40;91.50;;;;;;5098507;28;20489;-70
2023/05/29 09:06:41;;;;;;;1999.90;999.90;;;13.40;91.70;;;;;;5095940;28;20016;-70
2023/05/29 09:09:09;;;;;;;1999.90;999.90;;;13.40;91.80;;;;;;5085901;28;20036;-69
2023/05/29 09:11:37;;;;;;;1999.90;999.90;;;13.40;91.80;;;;;;5080839;28;20116;-70
2023/05/29 09:14:04;;;;;;;1999.90;999.90;;;13.30;92.00;;;;;;5086977;28;20024;-70
2023/05/29 09:16:32;;;;;;;1999.90;999.90;;;13.20;92.10;;;;;;5092086;28;20035;-69
2023/05/29 09:19:08;;;;;;;1999.90;999.90;;;13.20;92.20;;;;;;5082285;28;20043;-71
2023/05/29 09:21:36;;;;;;;1999.90;999.90;;;13.30;92.10;;;;;;5087318;28;20403;-71
2023/05/29 09:24:07;;;;;;;1999.90;999.90;;;13.30;92.00;;;;;;5086359;28;20060;-71
2023/05/29 09:26:34;;;;;;;1999.90;999.90;;;13.40;92.00;;;;;;5092770;28;20034;-71
2023/05/29 09:29:03;;;;;;;1999.90;999.90;;;13.50;91.80;;;;;;5093657;28;20032;-70
2023/05/29 09:31:30;;;;;;;1999.90;999.90;;;13.70;91.80;;;;;;5099625;28;20024;-69
2023/05/29 09:34:03;;;;;;;1999.90;999.90;;;13.90;91.50;;;;;;5093414;28;20040;-70
2023/05/29 09:36:32;;;;;;;1999.90;999.90;;;14.00;91.60;;;;;;5096950;28;20426;-71
2023/05/29 09:39:09;;;;;;;1999.90;999.90;;;14.10;91.50;;;;;;5086113;28;20036;-70
2023/05/29 09:41:43;;;;;;;1999.90;999.90;;;14.20;91.70;;;;;;5086529;28;20012;-70
2023/05/29 09:44:16;;;;;;;1999.90;999.90;;;14.20;91.80;;;;;;5089138;28;20497;-71
2023/05/29 09:46:44;;;;;;;1999.90;999.90;;;14.30;91.80;;;;;;5094148;28;20381;-70
2023/05/29 09:49:13;;;;;;;1999.90;999.90;;;14.20;91.90;;;;;;5095671;28;20106;-70
2023/05/29 09:51:44;;;;;;;1999.90;999.90;;;14.20;91.90;;;;;;5091223;28;20020;-71
2023/05/29 09:54:16;;;;;;;1999.90;999.90;;;14.10;91.80;;;;;;5088323;28;20131;-71
2023/05/29 09:56:44;;;;;;;1999.90;999.90;;;14.10;91.90;;;;;;5090018;28;20020;-70
2023/05/29 09:59:17;;;;;;;1999.90;999.90;;;14.00;92.10;;;;;;5086440;28;20060;-70
2023/05/29 10:01:49;;;;;;;1999.90;999.90;;;13.90;92.20;;;;;;5085369;28;20433;-72
2023/05/29 10:04:20;;;;;;;1999.90;999.90;;;13.80;92.40;;;;;;5074375;28;20651;-70
2023/05/29 10:06:49;;;;;;;1999.90;999.90;;;13.70;92.80;;;;;;5079381;28;20103;-71
2023/05/29 10:09:21;;;;;;;1999.90;999.90;;;13.70;92.80;;;;;;5069307;28;20016;-72
2023/05/29 10:11:50;;;;;;;1999.90;999.90;;;13.60;92.80;;;;;;5065581;28;20043;-72
2023/05/29 10:14:32;;;;;;;1999.90;999.90;;;13.50;93.00;;;;;;5073201;28;20035;-71
2023/05/29 10:17:05;;;;;;;1999.90;999.90;;;13.30;93.40;;;;;;5069770;28;20028;-72
2023/05/29 10:19:33;;;;;;;1999.90;999.90;;;13.20;93.60;;;;;;5075839;28;20028;-72
2023/05/29 10:22:04;;;;;;;1999.90;999.90;;;13.00;94.10;;;;;;5061690;28;20086;-71
2023/05/29 10:24:33;;;;;;;1999.90;999.90;;;12.80;94.20;;;;;;5065769;28;20028;-70
2023/05/29 10:27:01;;;;;;;1999.90;999.90;;;12.70;94.50;;;;;;5073595;28;20028;-72
2023/05/29 10:29:43;;;;;;;1999.90;999.90;;;12.60;94.80;;;;;;5068276;28;20024;-71
2023/05/29 10:32:27;;;;;;;1999.90;999.90;;;12.50;95.20;;;;;;5060280;28;20651;-71
2023/05/29 10:35:07;;;;;;;1999.90;999.90;;;12.40;95.40;;;;;;5064307;28;20033;-70
2023/05/29 10:38:02;;;;;;;1999.90;999.90;;;12.30;95.60;;;;;;5062350;28;20026;-71
2023/05/29 10:40:30;;;;;;;1999.90;999.90;;;12.20;96.00;;;;;;5053815;28;20032;-72
2023/05/29 10:43:00;;;;;;;1999.90;999.90;;;12.00;96.40;;;;;;5067669;28;20028;-70
2023/05/29 10:45:35;;;;;;;1999.90;999.90;;;12.00;96.90;;;;;;5066839;28;20070;-71
2023/05/29 10:48:09;;;;;;;1999.90;999.90;;;11.90;97.20;;;;;;5071324;28;20501;-71
2023/05/29 10:50:45;;;;;;;1999.90;999.90;;;11.80;97.20;;;;;;5063353;28;20020;-71
2023/05/29 10:53:17;;;;;;;1999.90;999.90;;;11.70;97.40;;;;;;5064449;28;20039;-71
2023/05/29 10:55:46;;;;;;;1999.90;999.90;;;11.60;97.80;;;;;;5068331;28;20032;-70
2023/05/29 10:58:20;;;;;;;1999.90;999.90;;;11.60;97.90;;;;;;5071377;28;20028;-73
2023/05/29 11:00:48;;;;;;;1999.90;999.90;;;11.50;98.00;;;;;;5071398;28;20501;-70
2023/05/29 11:03:20;;;;;;;1999.90;999.90;;;11.40;98.20;;;;;;5087126;28;20118;-71
2023/05/29 11:06:12;;;;;;;1999.90;999.90;;;11.30;98.50;;;;;;5080025;28;20027;-71
2023/05/29 11:08:47;;;;;;;1999.90;999.90;;;11.20;98.60;;;;;;5087891;28;20035;-70
2023/05/29 11:11:28;;;;;;;1999.90;999.90;;;11.20;98.80;;;;;;5089982;28;20027;-71
2023/05/29 11:13:59;;;;;;;1999.90;999.90;;;11.10;98.90;;;;;;5088331;28;20164;-71
2023/05/29 11:16:29;;;;;;;1999.90;999.90;;;11.10;99.10;;;;;;5073891;28;20051;-72
2023/05/29 11:18:58;;;;;;;1999.90;999.90;;;11.10;99.30;;;;;;5088262;28;20037;-70
2023/05/29 11:21:51;;;;;;;1999.90;999.90;;;11.10;99.40;;;;;;5089004;28;20445;-69
2023/05/29 11:24:25;;;;;;;1999.90;999.90;;;11.20;99.40;;;;;;5085116;28;20538;-70
2023/05/29 11:26:55;;;;;;;1999.90;999.90;;;11.10;99.30;;;;;;5096629;28;20024;-72
2023/05/29 11:29:29;;;;;;;1999.90;999.90;;;11.00;99.50;;;;;;5071826;28;20028;-70
2023/05/29 11:31:57;;;;;;;1999.90;999.90;;;11.00;99.50;;;;;;5088821;28;20035;-70
2023/05/29 11:34:27;;;;;;;1999.90;999.90;;;10.90;99.70;;;;;;5087668;28;20024;-71
2023/05/29 11:36:57;;;;;;;1999.90;999.90;;;10.80;99.90;;;;;;5092261;28;20028;-71
2023/05/29 11:39:28;;;;;;;1999.90;999.90;;;10.70;99.90;;;;;;5086649;28;20106;-71
2023/05/29 11:41:56;;;;;;;1999.90;999.90;;;10.70;99.90;;;;;;5096865;28;20538;-71
2023/05/29 11:44:26;;;;;;;1999.90;999.90;;;10.70;99.90;;;;;;5090810;28;20028;-70
2023/05/29 11:47:05;;;;;;;1999.90;999.90;;;10.60;99.90;;;;;;5093431;28;20023;-70
2023/05/29 11:49:34;;;;;;;1999.90;999.90;;;10.60;99.90;;;;;;5087428;28;20034;-70
2023/05/29 11:52:13;;;;;;;1999.90;999.90;;;10.50;99.90;;;;;;5086828;28;20031;-70
2023/05/29 11:54:47;;;;;;;1999.90;999.90;;;10.40;99.90;;;;;;5082694;28;20100;-71
2023/05/29 11:57:24;;;;;;;1999.90;999.90;;;10.40;99.90;;;;;;5098726;28;20047;-71
2023/05/29 11:59:58;;;;;;;1999.90;999.90;;;10.30;99.90;;;;;;5093426;28;20385;-71
2023/05/29 12:02:27;;;;;;;1999.90;999.90;;;10.20;99.90;;;;;;5094639;28;20043;-70
2023/05/29 12:05:02;;;;;;;1999.90;999.90;;;10.10;99.90;;;;;;5078552;28;20043;-72
2023/05/29 12:07:29;;;;;;;1999.90;999.90;;;10.10;99.90;;;;;;5091873;28;20028;-70
2023/05/29 12:10:00;;;;;;;1999.90;999.90;;;10.00;99.90;;;;;;5089525;28;20047;-70